PABE/BET METAR and TAF weather

Enter ICAO airport designator
Station Type Date Time Source
PABE METAR 2019/02/22 23:53 UTC NOAA

PABE 222353Z 15019G25KT 10SM OVC038 01/M02 A3012 RMK AO2 SLP202 60000 T00061022 10006 21006 58004


Station Type Date Time Source
PABE Decoded METAR 2019/02/22 23:53 UTC NOAA

BETHEL AIRPORT, AK, United States (PABE) 60-47N 161-50W 46M
Feb 22, 2019 - 06:53 PM EST / 2019.02.22 2353 UTC
Wind: from the SSE (150 degrees) at 22 MPH (19 KT) gusting to 29 MPH (25 KT):0
Visibility: 10 mile(s):0
Sky conditions: overcast
Temperature: 33.1 F (0.6 C)
Windchill: 21 F (-6 C):1
Dew Point: 28.0 F (-2.2 C)
Relative Humidity: 81%
Pressure (altimeter): 30.12 in. Hg (1019 hPa)
Pressure tendency: 0.01 inches (0.4 hPa) lower than three hours ago
ob: PABE 222353Z 15019G25KT 10SM OVC038 01/M02 A3012 RMK AO2 SLP202 60000 T00061022 10006 21006 58004
cycle: 0

Station Type Date Time Source
PABE TAF 2019/02/22 18:27 UTC NOAA

TAF PABE 221724Z 2218/2318 16018KT P6SM SCT035 BKN050
TEMPO 2218/2222 5SM -SN BR SCT025 BKN035
FM222200 16014G24KT P6SM SCT025 BKN050
FM230200 13011KT P6SM OVC070
FM231000 13016KT P6SM VCSH SCT025 BKN035


Example: see airport list